Time;durP1;ratioP1;P1;durP2;ratioP2;P2;SDS_P1;SDS_P2;PMS_P1;PMS_P2;Temp;Humidity;BMP_temperature;BMP_pressure;BME280_temperature;BME280_humidity;BME280_pressure;Samples;Min_cycle;Max_cycle;Signal;HPM_P1;HPM_P2
2022/07/28 00:03:32;;;;;;;0.22;0.10;;;16.80;91.10;;;;;;10294808;28;20524;-58
2022/07/28 00:08:34;;;;;;;1.77;0.38;;;16.70;91.00;;;;;;10294942;28;20057;-58
2022/07/28 00:13:35;;;;;;;0.55;0.10;;;16.70;91.40;;;;;;10299701;28;20054;-58
2022/07/28 00:18:37;;;;;;;3.83;0.10;;;16.70;91.20;;;;;;10308707;28;20445;-58
2022/07/28 00:23:39;;;;;;;0.75;0.10;;;16.60;91.30;;;;;;10292502;28;20058;-58
2022/07/28 00:28:40;;;;;;;2.90;0.13;;;16.60;91.40;;;;;;10288044;28;20066;-59
2022/07/28 00:33:42;;;;;;;4.68;0.20;;;16.50;91.50;;;;;;10302381;28;20403;-58
2022/07/28 00:38:44;;;;;;;1.05;0.10;;;16.50;91.60;;;;;;10303721;28;20046;-59
2022/07/28 00:43:50;;;;;;;1.13;0.10;;;16.50;91.70;;;;;;10296465;28;20086;-58
2022/07/28 00:48:54;;;;;;;0.38;0.05;;;16.40;91.80;;;;;;10277398;28;20051;-59
2022/07/28 00:53:56;;;;;;;1.08;0.10;;;16.30;92.10;;;;;;10302263;28;20061;-58
2022/07/28 00:58:58;;;;;;;1.30;0.13;;;16.20;92.10;;;;;;10291060;28;20489;-58
2022/07/28 01:04:01;;;;;;;0.98;0.13;;;16.20;92.40;;;;;;10291444;28;20054;-59
2022/07/28 01:09:44;;;;;;;2.45;0.17;;;16.20;92.50;;;;;;10309700;28;20054;-59
2022/07/28 01:14:57;;;;;;;2.47;0.20;;;16.20;92.70;;;;;;10241254;28;20090;-59
2022/07/28 01:20:14;;;;;;;3.75;0.10;;;16.20;92.90;;;;;;10300823;28;20049;-59
2022/07/28 01:25:30;;;;;;;1.75;0.10;;;16.10;92.90;;;;;;10291051;28;20473;-59
2022/07/28 01:30:38;;;;;;;4.80;0.10;;;16.00;93.20;;;;;;10297941;28;20105;-59
2022/07/28 01:36:00;;;;;;;1.02;0.20;;;16.00;93.30;;;;;;10296131;28;20082;-59
2022/07/28 01:41:04;;;;;;;3.95;0.17;;;15.90;93.40;;;;;;10274168;28;20051;-59
2022/07/28 01:46:07;;;;;;;0.75;0.10;;;15.90;94.00;;;;;;10285461;28;20126;-59
2022/07/28 01:51:12;;;;;;;1.30;0.20;;;15.90;93.80;;;;;;10275409;28;20039;-59
2022/07/28 01:56:16;;;;;;;0.55;0.10;;;15.80;93.90;;;;;;10294994;28;20050;-59
2022/07/28 02:01:19;;;;;;;0.10;0.10;;;15.80;94.00;;;;;;10307930;28;20042;-59
2022/07/28 02:06:22;;;;;;;0.35;0.10;;;15.70;94.20;;;;;;10295535;28;20058;-60
2022/07/28 02:11:38;;;;;;;0.68;0.20;;;15.60;94.40;;;;;;10263291;28;20059;-59
2022/07/28 02:16:44;;;;;;;0.60;0.20;;;15.60;94.70;;;;;;10257772;28;20050;-59
2022/07/28 02:21:47;;;;;;;1.13;0.13;;;15.60;95.00;;;;;;10260845;28;20135;-59
2022/07/28 02:26:56;;;;;;;3.35;0.22;;;15.60;95.00;;;;;;10265281;28;20102;-59
2022/07/28 02:32:13;;;;;;;3.22;0.30;;;15.60;94.90;;;;;;10268480;28;20086;-59
2022/07/28 02:37:44;;;;;;;5.55;0.30;;;15.50;95.30;;;;;;10251055;28;20102;-60
2022/07/28 02:42:48;;;;;;;1.48;0.20;;;15.50;95.40;;;;;;10262398;28;20055;-59
2022/07/28 02:47:55;;;;;;;1.00;0.10;;;15.50;95.70;;;;;;10257492;28;20055;-59
2022/07/28 02:53:02;;;;;;;0.50;0.20;;;15.40;95.80;;;;;;10242673;28;20055;-59
2022/07/28 02:58:23;;;;;;;0.30;0.10;;;15.40;96.00;;;;;;10260724;28;20098;-59
2022/07/28 03:03:25;;;;;;;1.73;0.20;;;15.30;96.10;;;;;;10269385;28;20086;-59
2022/07/28 03:08:27;;;;;;;3.20;0.13;;;15.20;96.40;;;;;;10261196;28;20055;-60
2022/07/28 03:13:28;;;;;;;3.60;0.20;;;15.10;96.90;;;;;;10273544;28;20050;-58
2022/07/28 03:18:30;;;;;;;1.48;0.20;;;15.10;96.80;;;;;;10275402;28;20051;-59
2022/07/28 03:23:37;;;;;;;1.13;0.20;;;15.00;97.60;;;;;;10275197;28;20106;-59
2022/07/28 03:28:40;;;;;;;0.20;0.10;;;14.90;97.70;;;;;;10275278;28;20042;-59
2022/07/28 03:33:42;;;;;;;1.45;0.28;;;14.80;98.10;;;;;;10276572;28;20059;-59
2022/07/28 03:38:50;;;;;;;2.67;0.20;;;14.80;98.40;;;;;;10274557;28;20057;-59
2022/07/28 03:43:53;;;;;;;3.65;0.20;;;14.70;98.70;;;;;;10275452;28;20046;-59
2022/07/28 03:48:55;;;;;;;0.40;0.15;;;14.70;98.80;;;;;;10275733;28;20059;-62
2022/07/28 03:53:56;;;;;;;1.17;0.30;;;14.70;99.10;;;;;;10272348;28;20466;-62
2022/07/28 03:58:58;;;;;;;5.32;0.20;;;14.70;99.40;;;;;;10273852;28;20557;-62
2022/07/28 04:04:00;;;;;;;1.65;0.10;;;14.70;99.60;;;;;;10273869;28;20055;-62
2022/07/28 04:09:01;;;;;;;0.32;0.20;;;14.80;99.90;;;;;;10257202;28;20054;-62
2022/07/28 04:14:03;;;;;;;1.73;0.20;;;14.80;99.90;;;;;;10266536;28;20099;-62
2022/07/28 04:19:05;;;;;;;4.72;0.20;;;14.80;99.90;;;;;;10247529;28;20053;-62
2022/07/28 04:24:08;;;;;;;4.65;0.38;;;14.80;99.90;;;;;;10246841;28;20047;-62
2022/07/28 04:29:10;;;;;;;1.67;0.20;;;14.90;99.90;;;;;;10260333;28;20517;-62
2022/07/28 04:34:13;;;;;;;2.47;0.20;;;15.00;99.90;;;;;;10252566;28;20050;-62
2022/07/28 04:39:15;;;;;;;0.57;0.20;;;15.00;99.90;;;;;;10249663;28;20047;-62
2022/07/28 04:44:17;;;;;;;3.10;0.20;;;15.00;99.90;;;;;;10248019;28;20434;-62
2022/07/28 04:49:19;;;;;;;2.15;0.20;;;15.10;99.90;;;;;;10243745;28;20051;-62
2022/07/28 04:54:21;;;;;;;1.58;0.20;;;15.10;99.90;;;;;;10251981;28;20490;-62
2022/07/28 04:59:27;;;;;;;1.30;0.10;;;15.20;99.90;;;;;;10251750;28;20058;-62
2022/07/28 05:04:31;;;;;;;3.13;0.10;;;15.30;99.90;;;;;;10244442;28;20690;-62
2022/07/28 05:09:35;;;;;;;3.50;0.20;;;15.30;99.90;;;;;;10278176;28;20042;-62
2022/07/28 05:14:36;;;;;;;1.48;0.17;;;15.50;99.90;;;;;;10265970;28;20065;-62
2022/07/28 05:19:38;;;;;;;0.75;0.20;;;15.50;99.90;;;;;;10303368;28;20063;-62
2022/07/28 05:24:40;;;;;;;1.13;0.20;;;15.50;99.90;;;;;;10294220;28;20457;-62
2022/07/28 05:29:42;;;;;;;5.60;0.30;;;15.70;99.90;;;;;;10282012;28;20470;-63
2022/07/28 05:34:48;;;;;;;0.60;0.30;;;15.80;99.90;;;;;;10283154;28;20038;-63
2022/07/28 05:39:50;;;;;;;1.17;0.30;;;15.90;99.90;;;;;;10290282;28;20057;-62
2022/07/28 05:44:51;;;;;;;4.22;0.20;;;16.00;99.90;;;;;;10290862;28;20112;-63
2022/07/28 05:49:57;;;;;;;2.80;0.13;;;16.20;99.90;;;;;;10290006;28;20104;-63
2022/07/28 05:54:59;;;;;;;0.93;0.20;;;16.20;99.90;;;;;;10290639;28;20656;-63
2022/07/28 06:00:01;;;;;;;4.47;0.22;;;16.30;99.90;;;;;;10279811;28;20046;-63
2022/07/28 06:05:05;;;;;;;1.77;0.10;;;16.40;99.90;;;;;;10277442;28;20053;-63
2022/07/28 06:10:07;;;;;;;3.50;0.10;;;16.50;99.90;;;;;;10264755;28;20054;-63
2022/07/28 06:15:27;;;;;;;5.30;0.22;;;16.60;99.90;;;;;;10261724;28;20047;-63
2022/07/28 06:20:29;;;;;;;1.75;0.20;;;16.60;99.90;;;;;;10259867;28;20057;-63
2022/07/28 06:25:31;;;;;;;7.05;0.20;;;16.80;99.90;;;;;;10263691;28;20054;-63
2022/07/28 06:30:32;;;;;;;1.02;0.20;;;16.90;99.90;;;;;;10262718;28;20050;-63
2022/07/28 06:35:34;;;;;;;3.53;0.20;;;17.00;99.70;;;;;;10263082;28;20051;-63
2022/07/28 06:40:48;;;;;;;5.60;0.55;;;17.30;99.80;;;;;;10264046;28;20158;-63
2022/07/28 06:45:50;;;;;;;4.53;0.38;;;17.50;99.90;;;;;;10251016;28;20418;-63
2022/07/28 06:50:52;;;;;;;2.47;0.20;;;17.80;99.00;;;;;;10252009;28;20055;-64
2022/07/28 06:55:53;;;;;;;0.32;0.10;;;17.90;98.80;;;;;;10275919;28;20697;-64
2022/07/28 07:00:57;;;;;;;1.45;0.15;;;18.20;98.30;;;;;;10266062;28;20082;-63
2022/07/28 07:05:59;;;;;;;2.88;0.30;;;18.20;97.70;;;;;;10269467;28;20366;-64
2022/07/28 07:11:01;;;;;;;1.50;0.20;;;18.30;97.60;;;;;;10314489;28;20050;-64
2022/07/28 07:16:03;;;;;;;2.72;0.20;;;18.50;97.90;;;;;;10314274;28;20050;-64
2022/07/28 07:21:05;;;;;;;2.17;0.25;;;18.60;97.40;;;;;;10315318;28;20054;-64
2022/07/28 07:26:07;;;;;;;1.25;0.10;;;18.70;97.50;;;;;;10312859;28;20133;-64
2022/07/28 07:31:08;;;;;;;1.60;0.30;;;18.90;97.70;;;;;;10316924;28;20053;-64
2022/07/28 07:36:10;;;;;;;3.53;0.20;;;19.10;97.00;;;;;;10314927;28;20189;-64
2022/07/28 07:41:12;;;;;;;1.90;0.28;;;19.30;97.10;;;;;;10312896;28;20058;-64
2022/07/28 07:46:14;;;;;;;0.50;0.20;;;19.30;96.90;;;;;;10313987;28;20042;-62
2022/07/28 07:51:16;;;;;;;2.00;0.20;;;19.40;96.40;;;;;;10313645;28;20058;-63
2022/07/28 07:56:18;;;;;;;1.70;0.20;;;19.70;96.70;;;;;;10313513;28;20058;-62
2022/07/28 08:01:19;;;;;;;4.10;0.20;;;19.80;96.30;;;;;;10313320;28;20104;-63
2022/07/28 08:06:21;;;;;;;5.25;0.52;;;20.00;96.00;;;;;;10310386;28;20065;-62
2022/07/28 08:11:27;;;;;;;2.27;0.20;;;20.10;95.80;;;;;;10260613;28;20057;-63
2022/07/28 08:16:29;;;;;;;0.38;0.20;;;20.20;95.60;;;;;;10263032;28;20416;-62
2022/07/28 08:21:30;;;;;;;4.28;0.40;;;20.30;95.70;;;;;;10272542;28;20585;-62
2022/07/28 08:26:32;;;;;;;0.93;0.45;;;20.40;95.50;;;;;;10269739;28;20055;-62
2022/07/28 08:31:34;;;;;;;3.50;0.20;;;20.60;95.40;;;;;;10266724;28;20050;-64
2022/07/28 08:36:36;;;;;;;3.00;0.88;;;20.90;95.30;;;;;;10259588;28;20047;-64
2022/07/28 08:41:47;;;;;;;2.90;0.30;;;20.90;95.10;;;;;;10255760;28;20046;-64
2022/07/28 08:46:49;;;;;;;1.25;0.20;;;21.10;95.30;;;;;;10262371;28;20049;-64
2022/07/28 08:51:53;;;;;;;2.20;0.20;;;21.30;94.80;;;;;;10265918;28;20050;-64
2022/07/28 08:56:56;;;;;;;5.35;0.30;;;21.50;94.50;;;;;;10246778;28;20054;-65
2022/07/28 09:01:58;;;;;;;3.00;0.20;;;21.60;94.50;;;;;;10269714;28;20046;-64
2022/07/28 09:07:00;;;;;;;2.72;0.20;;;21.90;94.30;;;;;;10275117;28;20137;-64
2022/07/28 09:12:06;;;;;;;1.75;0.25;;;22.10;94.30;;;;;;10284695;28;20057;-64
2022/07/28 09:17:07;;;;;;;1.23;0.20;;;22.20;94.20;;;;;;10292586;28;20096;-64
2022/07/28 09:22:09;;;;;;;1.58;0.30;;;22.40;93.50;;;;;;10311196;28;20050;-64
2022/07/28 09:27:12;;;;;;;3.72;0.30;;;22.60;93.60;;;;;;10298329;28;20054;-64
2022/07/28 09:32:17;;;;;;;3.55;0.30;;;22.80;93.20;;;;;;10276526;28;20088;-64
2022/07/28 09:37:22;;;;;;;0.60;0.25;;;23.10;93.40;;;;;;10298400;28;20046;-64
2022/07/28 09:42:45;;;;;;;1.88;0.20;;;23.30;92.80;;;;;;10289710;28;20053;-64
2022/07/28 09:47:46;;;;;;;1.00;0.30;;;23.50;92.10;;;;;;10288461;28;20062;-64
2022/07/28 09:52:48;;;;;;;2.58;0.30;;;23.50;92.00;;;;;;10303318;28;20057;-64
2022/07/28 09:57:50;;;;;;;6.88;0.38;;;23.60;91.80;;;;;;10297698;28;20058;-64
2022/07/28 10:02:52;;;;;;;3.65;0.43;;;23.90;91.70;;;;;;10280945;28;20093;-64
2022/07/28 10:07:54;;;;;;;3.47;0.20;;;24.10;91.20;;;;;;10271623;28;20043;-64
2022/07/28 10:13:04;;;;;;;3.15;0.30;;;24.40;91.60;;;;;;10255316;28;20047;-63
2022/07/28 10:18:06;;;;;;;1.38;0.30;;;24.60;91.10;;;;;;10262960;28;20046;-64
2022/07/28 10:23:11;;;;;;;4.53;0.30;;;24.90;90.10;;;;;;10248357;28;20044;-63
2022/07/28 10:28:18;;;;;;;1.85;0.25;;;25.20;89.50;;;;;;10261587;28;20046;-64
2022/07/28 10:33:22;;;;;;;1.17;0.40;;;25.50;89.40;;;;;;10255793;28;20047;-64
2022/07/28 10:38:28;;;;;;;2.42;0.35;;;25.30;89.60;;;;;;10258534;28;20047;-64
2022/07/28 10:43:30;;;;;;;;;;;25.80;90.10;;;;;;10245591;28;20044;-64
2022/07/28 10:48:35;;;;;;;4.13;0.20;;;26.10;87.00;;;;;;10260586;28;19926;-64
2022/07/28 10:53:44;;;;;;;9.65;0.40;;;26.80;86.70;;;;;;10255873;28;20058;-63
2022/07/28 10:59:04;;;;;;;0.30;0.30;;;27.30;85.50;;;;;;10250380;28;20066;-63
2022/07/28 11:04:06;;;;;;;0.50;0.30;;;27.50;83.60;;;;;;10251579;28;20051;-64
2022/07/28 11:09:14;;;;;;;1.52;0.20;;;27.90;83.30;;;;;;10279092;28;20058;-63
2022/07/28 11:14:22;;;;;;;0.88;0.20;;;28.10;83.20;;;;;;10286770;28;20397;-63
2022/07/28 11:19:45;;;;;;;1.73;0.20;;;28.30;80.30;;;;;;10325173;28;20405;-63
2022/07/28 11:25:07;;;;;;;4.32;0.50;;;28.70;80.00;;;;;;10294120;28;20051;-62
2022/07/28 11:30:26;;;;;;;1.57;0.20;;;28.30;78.20;;;;;;10296679;28;20050;-62
2022/07/28 11:35:51;;;;;;;5.65;0.30;;;28.30;79.40;;;;;;10292889;28;20050;-62
2022/07/28 11:40:55;;;;;;;1.65;0.52;;;28.40;78.20;;;;;;10270246;28;20065;-63
2022/07/28 11:46:05;;;;;;;4.70;0.38;;;27.80;78.00;;;;;;10274360;28;20062;-63
2022/07/28 11:51:12;;;;;;;2.10;0.30;;;28.20;79.40;;;;;;10304651;28;20050;-63
2022/07/28 11:56:21;;;;;;;9.13;0.60;;;28.80;78.00;;;;;;10309170;28;20042;-63
2022/07/28 12:01:22;;;;;;;1.13;0.25;;;29.30;76.60;;;;;;10293833;28;20053;-63
2022/07/28 12:06:33;;;;;;;2.17;0.20;;;29.00;75.20;;;;;;10281434;28;20065;-63
2022/07/28 12:11:39;;;;;;;1.40;0.30;;;29.00;76.00;;;;;;10313602;28;20058;-63
2022/07/28 12:16:48;;;;;;;5.13;0.40;;;28.70;75.40;;;;;;10299844;28;20486;-63
2022/07/28 12:21:52;;;;;;;0.88;0.20;;;28.70;76.30;;;;;;10304895;28;20477;-63
2022/07/28 12:26:58;;;;;;;1.08;0.20;;;28.60;77.10;;;;;;10292448;28;20470;-63
2022/07/28 12:32:03;;;;;;;0.47;0.20;;;28.80;77.20;;;;;;10275688;28;20046;-63
2022/07/28 12:37:09;;;;;;;1.60;0.30;;;28.50;75.50;;;;;;10289574;28;20047;-63
2022/07/28 12:42:12;;;;;;;1.08;0.30;;;28.90;76.30;;;;;;10288933;28;20073;-63
2022/07/28 12:47:16;;;;;;;0.65;0.30;;;28.70;75.10;;;;;;10314192;28;20049;-62
2022/07/28 12:52:23;;;;;;;0.93;0.35;;;29.30;76.80;;;;;;10272546;28;20051;-63
2022/07/28 12:57:42;;;;;;;1.88;0.32;;;29.70;75.10;;;;;;10281857;28;20051;-63
2022/07/28 13:02:52;;;;;;;;;;;30.00;74.50;;;;;;10283609;28;20712;-63
2022/07/28 13:08:01;;;;;;;;;;;30.00;74.40;;;;;;10280167;28;19953;-63
2022/07/28 13:13:05;;;;;;;0.85;0.30;;;30.50;72.50;;;;;;10286348;28;19945;-63
2022/07/28 13:18:07;;;;;;;4.18;0.55;;;30.30;73.20;;;;;;10283445;28;20054;-63
2022/07/28 13:23:09;;;;;;;1.33;0.50;;;30.60;72.00;;;;;;10282314;28;20102;-62
2022/07/28 13:28:27;;;;;;;1.20;0.52;;;31.00;71.70;;;;;;10295248;28;20402;-62
2022/07/28 13:33:28;;;;;;;2.22;0.30;;;31.10;72.40;;;;;;10281683;28;20097;-63
2022/07/28 13:38:31;;;;;;;2.85;0.30;;;30.90;71.70;;;;;;10296404;28;20065;-62
2022/07/28 13:43:33;;;;;;;4.10;0.30;;;30.80;71.40;;;;;;10274065;28;20113;-62
2022/07/28 13:48:39;;;;;;;0.43;0.20;;;30.70;70.40;;;;;;10284981;28;20282;-62
2022/07/28 13:53:59;;;;;;;0.82;0.20;;;30.70;70.60;;;;;;10291352;28;20046;-63
2022/07/28 13:59:01;;;;;;;0.30;0.30;;;30.70;70.70;;;;;;10301868;28;20056;-62
2022/07/28 14:04:03;;;;;;;1.83;0.35;;;30.70;71.30;;;;;;10300674;28;20464;-63
2022/07/28 14:09:05;;;;;;;0.73;0.30;;;31.00;71.10;;;;;;10268789;28;20046;-63
2022/07/28 14:14:07;;;;;;;3.05;0.30;;;30.80;68.60;;;;;;10288660;28;20059;-63
2022/07/28 14:19:15;;;;;;;2.38;0.40;;;31.00;69.70;;;;;;10292200;28;20050;-62
2022/07/28 14:24:25;;;;;;;4.90;0.30;;;31.00;69.90;;;;;;10294418;28;20050;-63
2022/07/28 14:29:26;;;;;;;0.93;0.22;;;30.80;69.90;;;;;;10272500;28;20051;-63
2022/07/28 14:34:28;;;;;;;2.75;0.30;;;30.70;70.00;;;;;;10281222;28;20550;-63
2022/07/28 14:39:30;;;;;;;2.30;0.30;;;30.60;70.50;;;;;;10291162;28;20054;-62
2022/07/28 14:44:32;;;;;;;7.25;0.85;;;29.90;70.90;;;;;;10273806;28;20042;-63
2022/07/28 14:49:34;;;;;;;1.75;0.30;;;30.10;70.10;;;;;;10277498;28;20050;-63
2022/07/28 14:54:36;;;;;;;1.42;0.30;;;30.00;70.20;;;;;;10295663;28;20109;-63
2022/07/28 14:59:38;;;;;;;2.45;0.43;;;30.10;70.40;;;;;;10300686;28;20050;-63
2022/07/28 15:04:40;;;;;;;2.25;0.30;;;30.10;69.70;;;;;;10305163;28;20047;-63
2022/07/28 15:09:41;;;;;;;0.70;0.30;;;30.00;69.50;;;;;;10274225;28;20047;-63
2022/07/28 15:14:50;;;;;;;1.05;0.28;;;29.90;70.20;;;;;;10257250;28;20047;-62
2022/07/28 15:19:52;;;;;;;1.70;0.30;;;29.70;70.40;;;;;;10261888;28;20058;-63
2022/07/28 15:24:54;;;;;;;1.45;0.30;;;29.70;70.50;;;;;;10257701;28;20106;-62
2022/07/28 15:29:55;;;;;;;1.45;0.30;;;29.70;70.40;;;;;;10265684;28;20067;-62
2022/07/28 15:35:00;;;;;;;1.07;0.30;;;29.60;70.80;;;;;;10263130;28;20149;-63
2022/07/28 15:40:02;;;;;;;2.85;0.50;;;29.40;70.80;;;;;;10267876;28;20297;-63
2022/07/28 15:45:05;;;;;;;5.80;0.65;;;29.50;70.70;;;;;;10263728;28;20123;-62
2022/07/28 15:50:07;;;;;;;1.75;0.68;;;29.40;70.80;;;;;;10259641;28;20121;-62
2022/07/28 15:55:09;;;;;;;6.43;0.30;;;29.40;71.00;;;;;;10264993;28;20046;-56
2022/07/28 16:00:11;;;;;;;2.22;0.40;;;29.40;71.60;;;;;;10267440;28;20050;-57
2022/07/28 16:05:13;;;;;;;0.57;0.30;;;29.40;71.50;;;;;;10260823;28;20047;-56
2022/07/28 16:10:15;;;;;;;2.80;0.30;;;29.30;71.00;;;;;;10287832;28;20069;-56
2022/07/28 16:15:17;;;;;;;0.95;0.35;;;29.10;71.10;;;;;;10300370;28;20046;-56
2022/07/28 16:20:20;;;;;;;5.38;0.32;;;29.00;72.00;;;;;;10299060;28;20454;-55
2022/07/28 16:25:22;;;;;;;1.45;0.28;;;28.80;72.10;;;;;;10303394;28;20054;-56
2022/07/28 16:30:23;;;;;;;4.25;0.47;;;28.60;71.90;;;;;;10301484;28;20720;-62
2022/07/28 16:35:31;;;;;;;1.20;0.40;;;28.50;71.80;;;;;;10289833;28;20517;-63
2022/07/28 16:40:33;;;;;;;1.85;0.30;;;28.20;72.10;;;;;;10279110;28;20456;-63
2022/07/28 16:45:34;;;;;;;1.33;0.30;;;28.10;72.00;;;;;;10289604;28;20046;-64
2022/07/28 16:50:37;;;;;;;2.10;0.30;;;27.90;72.20;;;;;;10299323;28;20057;-63
2022/07/28 16:55:40;;;;;;;2.53;0.40;;;27.80;72.80;;;;;;10301089;28;20065;-64
2022/07/28 17:00:42;;;;;;;3.38;0.63;;;27.60;73.80;;;;;;10281968;28;20051;-64
2022/07/28 17:05:44;;;;;;;4.68;0.50;;;27.50;73.70;;;;;;10267917;28;20039;-62
2022/07/28 17:10:46;;;;;;;1.33;0.30;;;27.30;73.80;;;;;;10295940;28;20062;-62
2022/07/28 17:15:48;;;;;;;3.90;0.50;;;27.10;73.70;;;;;;10285556;28;20066;-64
2022/07/28 17:20:49;;;;;;;1.73;0.90;;;27.10;74.00;;;;;;10280689;28;20102;-63
2022/07/28 17:25:51;;;;;;;2.05;0.40;;;27.10;73.80;;;;;;10302268;28;20051;-62
2022/07/28 17:31:14;;;;;;;2.15;0.30;;;27.30;73.70;;;;;;10281997;28;20042;-62
2022/07/28 17:36:15;;;;;;;1.75;0.40;;;26.60;73.30;;;;;;10295907;28;20061;-62
2022/07/28 17:41:17;;;;;;;0.80;0.40;;;27.50;74.20;;;;;;10302700;28;20054;-63
2022/07/28 17:46:19;;;;;;;0.30;0.30;;;27.60;73.80;;;;;;10302980;28;20049;-63
2022/07/28 17:51:22;;;;;;;5.05;0.22;;;27.70;73.80;;;;;;10310295;28;20065;-63
2022/07/28 17:56:23;;;;;;;0.68;0.22;;;27.70;74.00;;;;;;10303578;28;20062;-62
2022/07/28 18:01:26;;;;;;;0.98;0.30;;;27.60;74.20;;;;;;10277975;28;20054;-63
2022/07/28 18:06:30;;;;;;;1.80;0.40;;;27.50;74.90;;;;;;10289184;28;20057;-62
2022/07/28 18:11:38;;;;;;;4.15;0.40;;;27.40;74.60;;;;;;10260125;28;20046;-62
2022/07/28 18:16:58;;;;;;;2.37;0.30;;;27.30;75.00;;;;;;10245223;28;20054;-62
2022/07/28 18:22:00;;;;;;;2.38;0.30;;;27.00;75.10;;;;;;10263756;28;20411;-62
2022/07/28 18:27:02;;;;;;;2.25;0.40;;;27.00;75.60;;;;;;10260670;28;20050;-62
2022/07/28 18:32:06;;;;;;;3.83;0.32;;;26.90;75.60;;;;;;10271542;28;20057;-62
2022/07/28 18:37:13;;;;;;;4.32;0.38;;;26.70;76.20;;;;;;10273489;28;20121;-62
2022/07/28 18:42:15;;;;;;;2.00;0.40;;;26.50;76.50;;;;;;10267984;28;20055;-62
2022/07/28 18:47:17;;;;;;;1.17;0.30;;;26.30;76.80;;;;;;10266494;28;20302;-62
2022/07/28 18:52:18;;;;;;;2.97;0.40;;;26.00;76.70;;;;;;10265649;28;20066;-62
2022/07/28 18:57:20;;;;;;;0.90;0.30;;;25.80;77.00;;;;;;10274140;28;20490;-62
2022/07/28 19:02:23;;;;;;;2.85;0.20;;;25.60;77.20;;;;;;10267301;28;20043;-62
2022/07/28 19:07:27;;;;;;;2.70;0.40;;;25.40;77.40;;;;;;10279848;28;20065;-62
2022/07/28 19:12:30;;;;;;;0.52;0.30;;;25.20;77.70;;;;;;10308155;28;20042;-61
2022/07/28 19:17:32;;;;;;;3.67;0.40;;;25.10;78.10;;;;;;10304155;28;20050;-59
2022/07/28 19:22:34;;;;;;;3.72;0.60;;;24.90;78.40;;;;;;10302349;28;20058;-59
2022/07/28 19:27:36;;;;;;;5.85;0.20;;;24.70;78.80;;;;;;10293415;28;20055;-60
2022/07/28 19:32:40;;;;;;;4.07;0.40;;;24.60;79.40;;;;;;10281616;28;20058;-60
2022/07/28 19:37:42;;;;;;;0.85;0.32;;;24.40;79.90;;;;;;10296117;28;20051;-59
2022/07/28 19:42:47;;;;;;;4.60;0.35;;;24.30;80.00;;;;;;10303904;28;20042;-60
2022/07/28 19:47:48;;;;;;;3.10;0.20;;;24.20;80.10;;;;;;10299274;28;20051;-60
2022/07/28 19:52:50;;;;;;;3.60;0.40;;;24.00;80.20;;;;;;10287114;28;20747;-60
2022/07/28 19:57:57;;;;;;;3.75;0.60;;;23.90;80.20;;;;;;10301119;28;20555;-59
2022/07/28 20:02:59;;;;;;;1.10;0.35;;;23.80;80.20;;;;;;10298170;28;20053;-59
2022/07/28 20:08:01;;;;;;;1.15;0.30;;;23.70;80.60;;;;;;10270341;28;20397;-59
2022/07/28 20:13:03;;;;;;;5.55;0.30;;;23.70;80.60;;;;;;10263550;28;20053;-59
2022/07/28 20:18:04;;;;;;;3.65;0.30;;;23.50;80.50;;;;;;10269047;28;20046;-59
2022/07/28 20:23:07;;;;;;;0.70;0.30;;;23.50;80.50;;;;;;10255618;28;20071;-60
2022/07/28 20:28:09;;;;;;;0.90;0.20;;;23.40;80.40;;;;;;10263857;28;20051;-59
2022/07/28 20:33:11;;;;;;;3.40;0.20;;;23.40;80.30;;;;;;10236634;28;20062;-59
2022/07/28 20:38:13;;;;;;;2.72;0.20;;;23.40;80.20;;;;;;10261643;28;20047;-60
2022/07/28 20:43:14;;;;;;;2.47;0.22;;;23.30;80.20;;;;;;10260056;28;20084;-60
2022/07/28 20:48:16;;;;;;;3.80;0.30;;;23.30;80.70;;;;;;10252232;28;20553;-60
2022/07/28 20:53:18;;;;;;;5.10;0.50;;;23.20;80.20;;;;;;10264888;28;20054;-60
2022/07/28 20:58:19;;;;;;;4.30;0.30;;;23.20;80.30;;;;;;10264641;28;20040;-60
2022/07/28 21:03:21;;;;;;;2.42;0.52;;;23.20;80.30;;;;;;10254128;28;20054;-57
2022/07/28 21:08:23;;;;;;;3.60;0.20;;;23.10;80.20;;;;;;10289249;28;20054;-60
2022/07/28 21:13:24;;;;;;;3.70;0.30;;;23.10;80.30;;;;;;10306300;28;20062;-60
2022/07/28 21:18:26;;;;;;;3.88;0.30;;;23.00;80.30;;;;;;10292036;28;20062;-60
2022/07/28 21:23:28;;;;;;;0.93;0.30;;;23.00;80.40;;;;;;10297602;28;20050;-60
2022/07/28 21:33:51;;;;;;;1.40;0.30;;;22.80;80.60;;;;;;10292945;28;20054;-60
2022/07/28 21:38:53;;;;;;;1.48;0.20;;;22.70;81.40;;;;;;10271499;28;20093;-57
2022/07/28 21:43:55;;;;;;;3.50;0.30;;;22.70;80.90;;;;;;10292680;28;20097;-59
2022/07/28 21:49:02;;;;;;;3.03;0.30;;;22.60;81.10;;;;;;10295062;28;20136;-59
2022/07/28 21:54:04;;;;;;;2.78;0.30;;;22.60;81.20;;;;;;10301563;28;20065;-59
2022/07/28 21:59:06;;;;;;;8.73;0.40;;;22.50;81.20;;;;;;10302637;28;20061;-59
2022/07/28 22:04:08;;;;;;;0.60;0.30;;;22.50;81.30;;;;;;10301156;28;20049;-59
2022/07/28 22:09:09;;;;;;;1.77;0.30;;;22.40;81.40;;;;;;10286217;28;20050;-59
2022/07/28 22:14:11;;;;;;;2.17;0.30;;;22.40;81.70;;;;;;10294698;28;20043;-59
2022/07/28 22:19:13;;;;;;;4.40;0.60;;;22.30;82.10;;;;;;10305872;28;20100;-59
2022/07/28 22:24:15;;;;;;;1.25;0.35;;;22.30;82.70;;;;;;10290362;28;20074;-59
2022/07/28 22:29:17;;;;;;;4.22;0.30;;;22.20;83.10;;;;;;10290838;28;20057;-60
2022/07/28 22:34:19;;;;;;;1.83;0.30;;;22.10;83.40;;;;;;10291862;28;20058;-59
2022/07/28 22:39:21;;;;;;;0.88;0.30;;;22.00;83.50;;;;;;10276989;28;20410;-60
2022/07/28 22:44:22;;;;;;;7.85;0.30;;;21.90;83.40;;;;;;10291904;28;20050;-60
2022/07/28 22:49:24;;;;;;;1.20;0.30;;;21.80;83.40;;;;;;10296660;28;20077;-59
2022/07/28 22:54:26;;;;;;;0.55;0.32;;;21.70;83.30;;;;;;10288622;28;20054;-59
2022/07/28 22:59:28;;;;;;;4.07;0.25;;;21.70;83.20;;;;;;10293969;28;20042;-59
2022/07/28 23:04:35;;;;;;;2.13;0.28;;;21.70;83.80;;;;;;10284954;28;20047;-59
2022/07/28 23:09:39;;;;;;;3.88;0.63;;;21.60;83.20;;;;;;10292994;28;20055;-59
2022/07/28 23:14:40;;;;;;;0.60;0.20;;;21.60;82.80;;;;;;10290571;28;20067;-59
2022/07/28 23:19:42;;;;;;;3.42;0.30;;;21.70;82.90;;;;;;10307744;28;20097;-59
2022/07/28 23:24:44;;;;;;;5.70;0.30;;;21.50;83.70;;;;;;10299281;28;20058;-60
2022/07/28 23:29:45;;;;;;;0.98;0.30;;;21.50;83.20;;;;;;10297467;28;20428;-59
2022/07/28 23:34:48;;;;;;;2.70;0.30;;;21.50;83.30;;;;;;10297383;28;20058;-59
2022/07/28 23:39:50;;;;;;;1.75;0.30;;;21.50;83.50;;;;;;10287795;28;20074;-59
2022/07/28 23:44:51;;;;;;;0.93;0.20;;;21.50;83.80;;;;;;10288296;28;20046;-59
2022/07/28 23:49:53;;;;;;;2.65;0.22;;;21.40;83.50;;;;;;10295168;28;20053;-59
2022/07/28 23:54:55;;;;;;;1.88;0.28;;;21.40;83.40;;;;;;10283191;28;20073;-59
2022/07/28 23:59:57;;;;;;;0.70;0.20;;;21.30;83.80;;;;;;10294434;28;20046;-59
